Time;durP1;ratioP1;P1;durP2;ratioP2;P2;SDS_P1;SDS_P2;PMS_P1;PMS_P2;Temp;Humidity;BMP_temperature;BMP_pressure;BME280_temperature;BME280_humidity;BME280_pressure;Samples;Min_cycle;Max_cycle;Signal;HPM_P1;HPM_P2
2020/12/27 00:01:31;;;;;;;11.80;8.13;;;;;;;1.75;88.96;100832.00;4994637;28;20069;-79
2020/12/27 00:04:37;;;;;;;9.73;7.15;;;;;;;1.74;88.64;100819.66;4994409;28;20045;-77
2020/12/27 00:07:41;;;;;;;14.48;7.47;;;;;;;1.74;88.49;100806.44;4992830;28;20385;-79
2020/12/27 00:10:46;;;;;;;10.98;7.70;;;;;;;1.63;88.54;100806.06;4993978;28;20049;-77
2020/12/27 00:13:50;;;;;;;9.45;7.10;;;;;;;1.58;88.51;100803.59;4994284;28;20492;-78
2020/12/27 00:16:54;;;;;;;10.68;7.05;;;;;;;1.50;88.50;100800.44;5016106;28;20053;-77
2020/12/27 00:19:58;;;;;;;13.48;6.65;;;;;;;1.39;88.65;100785.97;4994196;28;20054;-78
2020/12/27 00:23:03;;;;;;;12.15;6.80;;;;;;;1.31;88.87;100778.34;4994255;28;20049;-77
2020/12/27 00:26:12;;;;;;;9.32;6.30;;;;;;;1.30;88.93;100766.94;4993635;28;20504;-77
2020/12/27 00:29:16;;;;;;;10.02;6.40;;;;;;;1.31;89.12;100770.41;4994091;28;20053;-79
2020/12/27 00:32:20;;;;;;;13.57;7.03;;;;;;;1.30;89.15;100771.38;5004934;28;20049;-78
2020/12/27 00:35:24;;;;;;;9.18;6.68;;;;;;;1.20;89.24;100759.47;4994045;28;20058;-79
2020/12/27 00:38:28;;;;;;;;;;;;;;;1.19;89.20;100763.03;4994152;28;20114;-77
2020/12/27 00:41:33;;;;;;;10.82;6.88;;;;;;;1.16;89.36;100745.50;4993861;28;20377;-78
2020/12/27 00:44:38;;;;;;;10.90;6.75;;;;;;;1.09;89.27;100741.41;4994064;28;20049;-78
2020/12/27 00:47:44;;;;;;;11.63;6.90;;;;;;;1.08;89.16;100744.13;5003924;28;20058;-78
2020/12/27 00:50:49;;;;;;;12.50;6.70;;;;;;;1.06;89.27;100741.53;4973776;28;20394;-79
2020/12/27 00:53:53;;;;;;;11.82;7.10;;;;;;;1.10;89.36;100743.16;4985106;28;20054;-78
2020/12/27 00:56:59;;;;;;;12.15;7.07;;;;;;;1.08;89.16;100736.19;4987162;28;20057;-78
2020/12/27 01:00:06;;;;;;;10.25;7.05;;;;;;;1.07;88.88;100722.13;5003496;28;20053;-78
2020/12/27 01:03:13;;;;;;;12.38;6.55;;;;;;;1.08;88.72;100712.41;5004343;28;20069;-79
2020/12/27 01:06:38;;;;;;;9.50;6.28;;;;;;;1.07;88.51;100706.25;5003829;28;20053;-79
2020/12/27 01:09:45;;;;;;;9.48;6.20;;;;;;;1.11;88.18;100712.28;4996622;28;20058;-78
2020/12/27 01:12:50;;;;;;;11.52;6.70;;;;;;;1.02;88.22;100702.09;4997410;28;20053;-77
2020/12/27 01:15:55;;;;;;;10.80;6.80;;;;;;;1.05;88.26;100707.25;5006643;28;20046;-77
2020/12/27 01:19:02;;;;;;;10.30;6.47;;;;;;;1.15;88.04;100711.22;5004107;28;20081;-77
2020/12/27 01:22:14;;;;;;;11.02;6.43;;;;;;;1.15;87.53;100712.09;5019236;28;20053;-77
2020/12/27 01:25:51;;;;;;;9.48;6.57;;;;;;;1.13;87.66;100702.50;4994701;28;20513;-78
2020/12/27 01:28:56;;;;;;;9.38;6.70;;;;;;;1.13;87.62;100705.16;4980623;28;20590;-80
2020/12/27 01:32:03;;;;;;;10.82;6.30;;;;;;;1.08;87.54;100700.06;4960623;28;20429;-77
2020/12/27 01:35:19;;;;;;;11.48;6.53;;;;;;;1.08;87.84;100704.50;4981169;28;20154;-76
2020/12/27 01:38:24;;;;;;;8.98;5.82;;;;;;;1.10;87.94;100690.28;4964571;28;20054;-75
2020/12/27 01:41:28;;;;;;;11.15;6.82;;;;;;;1.05;88.06;100692.25;4964502;28;20058;-77
2020/12/27 01:44:34;;;;;;;10.13;6.28;;;;;;;1.05;88.17;100689.63;4969512;28;20572;-79
2020/12/27 01:47:39;;;;;;;12.05;6.95;;;;;;;1.03;88.15;100693.25;4983618;28;20045;-78
2020/12/27 01:50:44;;;;;;;10.95;6.85;;;;;;;1.02;88.02;100679.16;4994938;28;20054;-78
2020/12/27 01:53:53;;;;;;;11.48;6.53;;;;;;;1.03;88.12;100678.25;4971345;28;20050;-78
2020/12/27 01:57:22;;;;;;;11.40;6.53;;;;;;;1.07;88.13;100687.75;4975881;28;20050;-77
2020/12/27 02:00:35;;;;;;;11.18;6.25;;;;;;;1.09;87.90;100679.75;4982909;28;20050;-78
2020/12/27 02:03:58;;;;;;;14.80;6.70;;;;;;;1.12;88.15;100680.50;5013997;28;20061;-76
2020/12/27 02:07:12;;;;;;;10.48;6.25;;;;;;;1.11;87.94;100662.06;5018512;28;20163;-78
2020/12/27 02:10:37;;;;;;;8.35;5.82;;;;;;;1.18;87.72;100660.88;4996016;28;20045;-78
2020/12/27 02:13:48;;;;;;;13.02;6.15;;;;;;;1.17;87.47;100661.78;5006171;28;20061;-79
2020/12/27 02:16:54;;;;;;;10.95;5.80;;;;;;;1.05;87.27;100657.03;5017305;28;20057;-78
2020/12/27 02:20:19;;;;;;;11.05;5.80;;;;;;;1.07;86.89;100655.19;4996304;28;20490;-78
2020/12/27 02:23:34;;;;;;;10.38;6.18;;;;;;;1.03;86.83;100662.41;5006616;28;20061;-77
2020/12/27 02:27:03;;;;;;;9.07;5.57;;;;;;;0.94;86.60;100646.94;4995202;28;20046;-76
2020/12/27 02:30:07;;;;;;;11.13;6.28;;;;;;;0.96;86.40;100633.66;5006513;28;20061;-76
2020/12/27 02:33:12;;;;;;;8.52;5.35;;;;;;;0.87;86.43;100634.91;5006531;28;20069;-77
2020/12/27 02:36:17;;;;;;;10.57;6.45;;;;;;;0.89;86.36;100634.88;5005913;28;20065;-80
2020/12/27 02:39:23;;;;;;;8.57;5.68;;;;;;;0.86;86.38;100622.66;5004954;28;20057;-78
2020/12/27 02:42:27;;;;;;;9.02;5.32;;;;;;;0.87;86.38;100628.75;4994892;28;20171;-79
2020/12/27 02:45:32;;;;;;;9.55;5.38;;;;;;;0.83;86.37;100614.00;5005093;28;20504;-79
2020/12/27 02:48:56;;;;;;;8.90;5.57;;;;;;;0.85;86.33;100610.34;4995632;28;20049;-78
2020/12/27 02:52:02;;;;;;;9.52;5.38;;;;;;;0.86;86.08;100601.50;5005635;28;20061;-77
2020/12/27 02:55:08;;;;;;;9.80;5.40;;;;;;;0.86;85.90;100605.94;5005720;28;20382;-79
2020/12/27 02:58:20;;;;;;;7.68;5.65;;;;;;;0.86;85.83;100605.94;4993760;28;20058;-78
2020/12/27 03:01:29;;;;;;;8.75;5.45;;;;;;;0.91;85.99;100604.81;4994862;28;20114;-78
2020/12/27 03:05:05;;;;;;;8.15;5.53;;;;;;;0.96;86.20;100597.53;4995642;28;20072;-79
2020/12/27 03:08:10;;;;;;;12.48;6.47;;;;;;;1.00;86.08;100598.25;4975142;28;20050;-79
2020/12/27 03:11:34;;;;;;;9.50;6.07;;;;;;;1.02;86.28;100601.66;4975919;28;20391;-78
2020/12/27 03:14:39;;;;;;;11.57;6.30;;;;;;;1.07;86.18;100607.59;4974304;28;20046;-79
2020/12/27 03:18:16;;;;;;;12.95;6.15;;;;;;;0.85;85.62;100585.72;4969898;28;20054;-78
2020/12/27 03:21:32;;;;;;;12.88;6.47;;;;;;;0.80;85.80;100598.25;4964008;28;20390;-76
2020/12/27 03:24:40;;;;;;;7.10;5.25;;;;;;;0.84;85.58;100602.50;4987811;28;20058;-78
2020/12/27 03:27:44;;;;;;;10.73;5.50;;;;;;;0.89;85.81;100606.63;4994274;28;20501;-78
2020/12/27 03:30:49;;;;;;;8.75;5.80;;;;;;;0.90;85.28;100597.78;5005369;28;20049;-78
2020/12/27 03:34:01;;;;;;;8.75;4.93;;;;;;;0.97;84.94;100603.66;5005160;28;20053;-78
2020/12/27 03:37:05;;;;;;;10.13;5.50;;;;;;;0.94;85.02;100582.69;5005244;28;20050;-78
2020/12/27 03:40:35;;;;;;;10.40;6.30;;;;;;;0.99;85.23;100596.50;4994344;28;20477;-78
2020/12/27 03:44:17;;;;;;;11.88;5.53;;;;;;;0.87;85.09;100578.56;4985580;28;20070;-77
2020/12/27 03:47:40;;;;;;;6.95;4.75;;;;;;;0.92;84.94;100584.50;4991604;28;20061;-78
2020/12/27 03:50:52;;;;;;;8.85;5.50;;;;;;;0.91;85.23;100581.03;5005092;28;20053;-79
2020/12/27 03:53:57;;;;;;;10.43;5.72;;;;;;;0.82;85.25;100565.56;5004973;28;20076;-77
2020/12/27 03:57:24;;;;;;;6.95;5.40;;;;;;;0.78;85.86;100574.56;4970189;28;20057;-76
2020/12/27 04:00:52;;;;;;;9.63;5.45;;;;;;;0.73;85.85;100579.19;5009723;28;20052;-78
2020/12/27 04:04:03;;;;;;;10.35;5.80;;;;;;;0.77;86.16;100575.47;4987654;28;20428;-78
2020/12/27 04:07:09;;;;;;;8.63;4.95;;;;;;;0.72;86.32;100558.13;4981449;28;20049;-77
2020/12/27 04:10:25;;;;;;;12.95;5.78;;;;;;;0.68;86.31;100549.47;4981373;28;20556;-79
2020/12/27 04:13:30;;;;;;;7.80;4.85;;;;;;;0.70;86.13;100541.47;4981117;28;20137;-78
2020/12/27 04:16:40;;;;;;;11.13;5.18;;;;;;;0.67;85.85;100546.91;4981154;28;20536;-77
2020/12/27 04:19:45;;;;;;;13.30;6.13;;;;;;;0.67;86.00;100546.91;4983401;28;20637;-78
2020/12/27 04:22:52;;;;;;;8.73;5.05;;;;;;;0.73;85.97;100549.28;4993486;28;20496;-76
2020/12/27 04:25:57;;;;;;;11.27;5.30;;;;;;;0.74;85.85;100543.06;4984016;28;20045;-78
2020/12/27 04:29:01;;;;;;;9.10;5.00;;;;;;;0.70;85.86;100541.47;5000291;28;20498;-79
2020/12/27 04:32:07;;;;;;;8.63;5.05;;;;;;;0.62;85.75;100531.25;4981025;28;20053;-77
2020/12/27 04:35:30;;;;;;;8.38;4.88;;;;;;;0.55;85.44;100533.31;4991825;28;20497;-78
2020/12/27 04:38:35;;;;;;;8.00;5.35;;;;;;;0.46;85.67;100533.72;4985032;28;20054;-76
2020/12/27 04:41:40;;;;;;;9.27;4.95;;;;;;;0.36;85.13;100519.22;5000734;28;20493;-78
2020/12/27 04:44:55;;;;;;;7.60;4.88;;;;;;;0.30;85.15;100511.53;5008640;28;20429;-78
2020/12/27 04:48:11;;;;;;;6.30;4.90;;;;;;;0.29;85.32;100511.63;4977574;28;20501;-77
2020/12/27 04:51:37;;;;;;;11.00;5.60;;;;;;;0.28;85.44;100518.69;4992865;28;20054;-77
2020/12/27 04:55:04;;;;;;;10.60;5.43;;;;;;;0.27;85.66;100511.66;4978100;28;20050;-79
2020/12/27 04:58:28;;;;;;;8.80;4.93;;;;;;;0.24;85.41;100506.56;4978232;28;20046;-76
2020/12/27 05:01:54;;;;;;;7.60;5.00;;;;;;;0.28;84.97;100507.25;4988496;28;20054;-76
2020/12/27 05:05:12;;;;;;;8.55;4.60;;;;;;;0.28;85.28;100502.84;4977343;28;20054;-78
2020/12/27 05:08:19;;;;;;;7.55;4.97;;;;;;;0.38;85.65;100503.28;4988393;28;20050;-76
2020/12/27 05:11:29;;;;;;;9.30;5.80;;;;;;;0.33;85.03;100511.41;4999606;28;20054;-78
2020/12/27 05:14:40;;;;;;;15.80;5.57;;;;;;;0.24;85.04;100500.41;4999414;28;20054;-77
2020/12/27 05:17:47;;;;;;;7.93;5.00;;;;;;;0.19;85.08;100492.69;4999433;28;20398;-76
2020/12/27 05:20:53;;;;;;;9.38;5.30;;;;;;;0.18;85.34;100484.81;4987788;28;20537;-76
2020/12/27 05:24:00;;;;;;;8.90;4.85;;;;;;;0.21;85.34;100488.19;4999707;28;20046;-75
2020/12/27 05:27:16;;;;;;;7.93;4.78;;;;;;;0.25;85.08;100489.78;4988086;28;20058;-77
2020/12/27 05:30:43;;;;;;;10.98;4.95;;;;;;;0.12;85.64;100485.09;4977908;28;20050;-76
2020/12/27 05:34:09;;;;;;;7.25;4.35;;;;;;;0.10;85.81;100484.31;4977650;28;20054;-77
2020/12/27 05:37:31;;;;;;;9.68;4.50;;;;;;;0.07;86.06;100482.66;4977332;28;20061;-78
2020/12/27 05:41:05;;;;;;;6.90;4.15;;;;;;;0.01;85.65;100475.00;4987872;28;20054;-78
2020/12/27 05:44:18;;;;;;;10.15;4.90;;;;;;;-0.03;85.72;100474.28;4987537;28;20050;-77
2020/12/27 05:47:22;;;;;;;12.25;5.38;;;;;;;-0.09;85.83;100471.91;4975881;28;20053;-79
2020/12/27 05:50:35;;;;;;;8.23;5.18;;;;;;;-0.02;85.65;100477.75;4998546;28;20058;-78
2020/12/27 05:53:47;;;;;;;15.82;5.15;;;;;;;-0.02;85.78;100478.63;4987695;28;20049;-77
2020/12/27 05:56:56;;;;;;;5.95;4.63;;;;;;;0.03;85.71;100481.06;4999104;28;20046;-78
2020/12/27 06:00:04;;;;;;;6.85;4.63;;;;;;;0.07;85.63;100474.75;4987308;28;20054;-80
2020/12/27 06:03:23;;;;;;;7.18;4.43;;;;;;;0.07;85.57;100476.53;4976543;28;20046;-78
2020/12/27 06:06:49;;;;;;;13.32;4.82;;;;;;;0.05;84.85;100473.09;4998513;28;20070;-77
2020/12/27 06:10:00;;;;;;;9.85;5.45;;;;;;;-0.05;84.57;100483.19;4998334;28;20386;-78
2020/12/27 06:13:10;;;;;;;10.40;5.65;;;;;;;-0.02;84.60;100470.72;4987256;28;20061;-77
2020/12/27 06:16:23;;;;;;;9.80;4.80;;;;;;;-0.12;84.49;100469.38;4998368;28;20061;-79
2020/12/27 06:19:58;;;;;;;9.80;4.57;;;;;;;-0.12;84.60;100461.47;4987055;28;20050;-79
2020/12/27 06:23:06;;;;;;;11.13;4.53;;;;;;;-0.21;84.67;100461.88;4998321;28;20123;-77
2020/12/27 06:26:18;;;;;;;7.97;4.90;;;;;;;-0.16;84.69;100459.03;4987097;28;20049;-77
2020/12/27 06:30:05;;;;;;;10.27;5.57;;;;;;;-0.09;84.85;100471.03;4998293;28;20497;-79
2020/12/27 06:33:24;;;;;;;8.85;4.93;;;;;;;-0.07;84.82;100459.50;4987113;28;20058;-77
2020/12/27 06:36:33;;;;;;;7.68;4.70;;;;;;;-0.17;84.24;100452.03;4998240;28;20150;-78
2020/12/27 06:39:45;;;;;;;6.97;4.40;;;;;;;-0.17;84.41;100441.47;4998422;28;20398;-78
2020/12/27 06:43:22;;;;;;;9.05;4.18;;;;;;;-0.15;84.26;100444.94;4986700;28;20399;-77
2020/12/27 06:46:47;;;;;;;8.75;4.43;;;;;;;-0.23;83.94;100436.50;4999685;28;20143;-77
2020/12/27 06:50:19;;;;;;;8.77;4.20;;;;;;;-0.21;84.02;100437.28;4999367;28;20039;-77
2020/12/27 06:53:44;;;;;;;9.98;5.25;;;;;;;-0.22;84.65;100425.84;4975360;28;20058;-76
2020/12/27 06:57:03;;;;;;;7.75;4.55;;;;;;;-0.25;84.69;100428.66;4986623;28;20086;-76
2020/12/27 07:00:29;;;;;;;8.35;4.90;;;;;;;-0.28;84.81;100433.19;4997543;28;20050;-78
2020/12/27 07:03:45;;;;;;;9.65;5.30;;;;;;;-0.23;84.71;100424.16;4985878;28;20049;-76
2020/12/27 07:06:49;;;;;;;8.73;5.10;;;;;;;-0.13;84.65;100429.91;4976094;28;20375;-77
2020/12/27 07:09:54;;;;;;;11.85;5.57;;;;;;;-0.13;84.68;100428.13;4976293;28;20489;-77
2020/12/27 07:13:10;;;;;;;11.80;6.00;;;;;;;0.11;84.61;100427.97;4986376;28;20054;-79
2020/12/27 07:16:16;;;;;;;10.25;5.63;;;;;;;0.32;84.49;100430.50;4975954;28;20402;-78
2020/12/27 07:19:23;;;;;;;8.75;4.90;;;;;;;0.60;84.08;100416.91;4975926;28;20078;-76
2020/12/27 07:22:27;;;;;;;8.52;4.78;;;;;;;0.94;82.88;100427.59;4986203;28;20058;-78
2020/12/27 07:25:34;;;;;;;10.35;4.82;;;;;;;1.47;80.38;100422.38;4986210;28;20387;-79
2020/12/27 07:28:39;;;;;;;13.85;5.30;;;;;;;1.84;78.61;100427.53;4975725;28;20513;-81
2020/12/27 07:31:45;;;;;;;8.25;5.25;;;;;;;2.38;76.35;100428.25;4975660;28;20073;-82
2020/12/27 07:34:55;;;;;;;11.40;6.97;;;;;;;2.93;73.46;100419.03;4975830;28;20114;-78
2020/12/27 07:38:01;;;;;;;15.07;7.68;;;;;;;3.79;71.03;100408.72;4975375;28;20593;-78
2020/12/27 07:41:08;;;;;;;19.20;8.63;;;;;;;5.53;65.88;100413.59;4975584;28;20058;-78
2020/12/27 07:44:15;;;;;;;27.25;13.52;;;;;;;7.35;58.64;100400.78;4975029;28;20046;-82
2020/12/27 07:47:19;;;;;;;20.35;9.45;;;;;;;9.16;52.55;100389.22;4989301;28;20065;-83
2020/12/27 07:50:25;;;;;;;18.30;9.68;;;;;;;10.17;47.90;100387.88;5003878;28;20069;-77
2020/12/27 07:53:30;;;;;;;13.13;7.70;;;;;;;10.42;44.83;100374.88;4991208;28;20058;-78
2020/12/27 07:56:34;;;;;;;14.35;8.38;;;;;;;9.77;45.38;100376.97;4994751;28;20065;-77
2020/12/27 07:59:38;;;;;;;13.48;7.43;;;;;;;9.95;46.22;100385.28;4994727;28;20046;-77
2020/12/27 08:02:44;;;;;;;21.02;10.60;;;;;;;10.04;45.85;100381.81;4994755;28;20138;-78
2020/12/27 08:05:48;;;;;;;17.30;9.50;;;;;;;10.47;44.37;100382.53;4994899;28;20046;-78
2020/12/27 08:09:05;;;;;;;16.58;7.97;;;;;;;11.79;41.98;100379.53;4994670;28;20069;-81
2020/12/27 08:12:09;;;;;;;15.38;7.05;;;;;;;13.62;37.99;100375.19;4994870;28;20057;-84
2020/12/27 08:15:14;;;;;;;12.80;6.43;;;;;;;14.63;34.52;100358.44;4999642;28;20069;-80
2020/12/27 08:18:18;;;;;;;14.20;7.60;;;;;;;15.32;33.65;100359.09;4994505;28;20053;-82
2020/12/27 08:21:23;;;;;;;18.77;8.68;;;;;;;16.63;31.51;100367.97;5021647;28;20442;-83
2020/12/27 08:24:27;;;;;;;18.63;9.73;;;;;;;17.20;30.29;100360.47;5022387;28;20061;-83
2020/12/27 08:27:31;;;;;;;15.27;8.85;;;;;;;17.66;29.68;100345.13;4995319;28;20069;-81
2020/12/27 08:30:36;;;;;;;60.83;43.65;;;;;;;18.51;28.29;100346.66;4997724;28;20385;-83
2020/12/27 08:33:41;;;;;;;23.80;16.17;;;;;;;18.74;28.06;100341.94;5009365;28;20030;-82
2020/12/27 08:36:49;;;;;;;13.93;8.38;;;;;;;19.15;27.21;100334.16;4999565;28;20034;-81
2020/12/27 08:39:55;;;;;;;9.48;6.28;;;;;;;20.21;26.07;100323.34;4997349;28;20053;-76
2020/12/27 08:43:06;;;;;;;11.48;6.72;;;;;;;19.85;25.49;100334.31;5000863;28;20394;-80
2020/12/27 08:46:13;;;;;;;8.75;5.35;;;;;;;20.30;25.19;100334.94;5000259;28;20061;-81
2020/12/27 08:49:30;;;;;;;7.60;5.20;;;;;;;20.32;24.95;100325.53;4999508;28;20421;-80
2020/12/27 08:52:35;;;;;;;6.95;4.25;;;;;;;24.34;21.58;100320.63;4999612;28;20406;-83
2020/12/27 08:55:40;;;;;;;8.65;4.18;;;;;;;25.80;19.73;100303.91;4999844;28;20053;-83
2020/12/27 08:58:56;;;;;;;9.25;4.82;;;;;;;27.65;17.55;100308.50;4999925;28;20053;-82
2020/12/27 09:02:09;;;;;;;11.27;5.15;;;;;;;28.81;16.66;100299.44;5000481;28;20058;-82
2020/12/27 09:05:14;;;;;;;16.20;7.60;;;;;;;29.11;16.34;100298.19;5000729;28;20053;-85
2020/12/27 09:08:19;;;;;;;6.82;4.18;;;;;;;27.59;17.13;100300.38;4979901;28;20057;-83
2020/12/27 09:11:24;;;;;;;8.70;5.55;;;;;;;28.11;16.29;100282.59;4990582;28;20053;-80
2020/12/27 09:14:36;;;;;;;68.00;55.45;;;;;;;26.77;17.80;100290.63;5001328;28;20041;-78
2020/12/27 09:17:42;;;;;;;11.87;7.60;;;;;;;25.68;17.63;100285.69;5001566;28;20047;-78
2020/12/27 09:22:02;;;;;;;8.27;4.72;;;;;;;23.67;20.04;100282.94;5169928;27;20347;-77
2020/12/27 09:25:07;;;;;;;6.20;4.03;;;;;;;18.00;25.84;100287.66;5164970;27;20049;-77
2020/12/27 09:28:20;;;;;;;8.70;4.20;;;;;;;15.50;29.52;100285.94;5164010;27;20053;-79
2020/12/27 09:31:24;;;;;;;7.57;4.33;;;;;;;13.40;33.96;100282.09;5160965;27;20050;-77
2020/12/27 09:34:29;;;;;;;7.22;4.43;;;;;;;12.28;35.77;100281.59;5139826;27;20504;-78
2020/12/27 09:37:33;;;;;;;10.05;5.10;;;;;;;10.70;39.44;100282.06;5155395;27;20042;-80
2020/12/27 09:40:38;;;;;;;8.20;5.00;;;;;;;9.82;41.28;100291.66;5155205;27;20069;-77
2020/12/27 09:43:53;;;;;;;7.80;5.35;;;;;;;9.10;43.59;100285.31;5162583;27;20399;-78
2020/12/27 09:47:02;;;;;;;8.52;5.35;;;;;;;8.37;45.00;100277.03;5162941;27;20045;-77
2020/12/27 09:50:08;;;;;;;7.28;4.95;;;;;;;7.94;46.61;100266.19;5154841;27;20404;-80
2020/12/27 09:53:18;;;;;;;8.40;5.32;;;;;;;7.98;47.13;100272.13;5137123;27;20054;-77
2020/12/27 09:56:22;;;;;;;8.10;5.43;;;;;;;7.84;48.15;100268.75;5160316;27;20045;-79
2020/12/27 09:59:27;;;;;;;7.65;5.40;;;;;;;7.53;48.69;100265.91;5165599;27;20049;-78
2020/12/27 10:02:31;;;;;;;7.63;5.40;;;;;;;7.37;50.08;100262.69;5155908;27;20041;-79
2020/12/27 10:05:35;;;;;;;8.50;6.20;;;;;;;7.43;49.98;100256.88;5158972;27;20405;-78
2020/12/27 10:08:40;;;;;;;12.00;5.85;;;;;;;7.21;51.36;100254.97;5138201;27;20050;-79
2020/12/27 10:11:44;;;;;;;12.73;7.80;;;;;;;6.90;51.51;100235.09;5162697;27;20404;-80
2020/12/27 10:14:49;;;;;;;10.38;6.63;;;;;;;7.16;51.84;100225.09;5166255;27;20066;-78
2020/12/27 10:17:53;;;;;;;10.73;6.75;;;;;;;6.96;53.03;100213.25;5158950;27;20050;-80
2020/12/27 10:20:57;;;;;;;10.23;7.45;;;;;;;6.99;53.29;100199.69;5143971;27;20062;-79
2020/12/27 10:24:02;;;;;;;15.60;7.50;;;;;;;6.94;53.53;100196.53;5159173;27;20104;-79
2020/12/27 10:27:07;;;;;;;10.93;7.03;;;;;;;6.96;54.40;100189.25;5155747;27;20054;-80
2020/12/27 10:30:11;;;;;;;10.88;6.90;;;;;;;7.17;53.72;100186.78;5155915;27;20493;-80
2020/12/27 10:33:16;;;;;;;11.80;7.10;;;;;;;6.88;54.84;100173.00;5146649;27;20518;-80
2020/12/27 10:36:21;;;;;;;11.65;8.05;;;;;;;6.86;55.40;100155.41;5152488;27;20049;-79
2020/12/27 10:39:26;;;;;;;11.85;7.75;;;;;;;6.62;55.19;100158.06;5148165;27;20050;-80
2020/12/27 10:42:30;;;;;;;11.25;6.90;;;;;;;6.55;55.47;100159.50;5129084;27;20046;-80
2020/12/27 10:45:34;;;;;;;11.80;7.22;;;;;;;6.39;56.38;100156.28;5152428;27;20062;-80
2020/12/27 10:48:39;;;;;;;10.35;7.40;;;;;;;6.35;56.24;100141.47;5134495;27;20047;-79
2020/12/27 10:51:43;;;;;;;13.18;6.35;;;;;;;6.26;57.02;100142.16;5150529;27;20393;-79
2020/12/27 10:54:47;;;;;;;14.55;7.13;;;;;;;6.46;57.93;100126.41;5136573;27;20043;-80
2020/12/27 10:57:52;;;;;;;13.18;8.00;;;;;;;6.70;58.30;100121.03;5104455;28;20054;-80
2020/12/27 11:00:56;;;;;;;14.32;8.13;;;;;;;6.47;57.29;100109.41;5140600;27;20050;-80
2020/12/27 11:04:01;;;;;;;11.38;7.22;;;;;;;6.24;56.21;100099.63;5142562;27;20062;-80
2020/12/27 11:07:05;;;;;;;13.00;7.25;;;;;;;6.23;57.50;100107.72;5157576;27;20057;-79
2020/12/27 11:10:09;;;;;;;13.05;7.38;;;;;;;6.24;58.03;100093.44;5145179;27;20053;-79
2020/12/27 11:13:14;;;;;;;11.18;6.95;;;;;;;6.17;58.38;100086.88;5157981;27;20054;-77
2020/12/27 11:16:18;;;;;;;12.18;6.60;;;;;;;5.92;57.70;100079.81;5145159;27;20054;-78
2020/12/27 11:19:23;;;;;;;14.27;6.75;;;;;;;5.85;59.08;100070.59;5145334;27;20050;-79
2020/12/27 11:22:28;;;;;;;11.95;6.80;;;;;;;5.89;60.38;100058.75;5133797;27;20053;-79
2020/12/27 11:25:32;;;;;;;8.95;7.10;;;;;;;5.78;61.11;100046.16;5157818;27;20050;-79
2020/12/27 11:28:37;;;;;;;12.23;7.63;;;;;;;5.69;61.74;100043.31;5157089;27;20054;-82
2020/12/27 11:31:41;;;;;;;14.38;7.20;;;;;;;5.67;61.98;100030.13;5141803;27;20050;-80
2020/12/27 11:34:46;;;;;;;10.30;5.88;;;;;;;5.57;61.56;100031.75;5147588;27;20377;-80
2020/12/27 11:37:51;;;;;;;28.55;19.45;;;;;;;5.51;60.90;100005.56;5116239;28;20038;-79
2020/12/27 11:40:55;;;;;;;12.50;7.38;;;;;;;5.50;61.80;100011.03;5122541;27;20512;-78
2020/12/27 11:43:59;;;;;;;16.02;8.15;;;;;;;5.40;63.67;99996.69;5144581;27;20042;-78
2020/12/27 11:47:05;;;;;;;9.98;6.82;;;;;;;5.42;63.65;99984.97;5151377;27;20049;-79
2020/12/27 11:50:10;;;;;;;13.50;9.40;;;;;;;5.58;63.23;99976.72;5156849;27;20039;-78
2020/12/27 11:53:14;;;;;;;13.57;10.02;;;;;;;5.45;62.36;99975.91;5149824;27;20404;-79
2020/12/27 11:56:22;;;;;;;13.57;9.07;;;;;;;5.40;62.43;99970.06;5152775;27;20038;-78
2020/12/27 11:59:26;;;;;;;10.45;7.10;;;;;;;5.44;62.30;99975.03;5138598;27;20042;-79
2020/12/27 12:02:31;;;;;;;16.63;9.27;;;;;;;5.49;64.08;99970.25;5142751;27;20057;-79
2020/12/27 12:05:35;;;;;;;10.70;6.85;;;;;;;5.50;61.96;99971.94;5142628;27;20054;-78
2020/12/27 12:08:41;;;;;;;11.85;7.47;;;;;;;5.55;61.45;99953.84;5144677;27;20050;-78
2020/12/27 12:11:45;;;;;;;13.32;6.45;;;;;;;5.57;59.51;99951.91;5123524;27;20050;-78
2020/12/27 12:14:49;;;;;;;14.50;6.60;;;;;;;5.57;59.78;99935.94;5147833;27;20050;-79
2020/12/27 12:17:54;;;;;;;8.10;4.78;;;;;;;5.57;58.21;99938.59;5150701;27;20398;-79
2020/12/27 12:20:59;;;;;;;11.88;5.55;;;;;;;5.57;60.82;99937.72;5147587;27;20058;-77
2020/12/27 12:24:04;;;;;;;10.80;6.03;;;;;;;5.66;58.48;99913.94;5114954;28;20061;-78
2020/12/27 12:27:08;;;;;;;10.93;5.43;;;;;;;5.77;54.28;99900.69;5141611;27;20420;-78
2020/12/27 12:30:13;;;;;;;7.35;4.15;;;;;;;5.91;54.28;99894.34;5147312;27;20483;-79
2020/12/27 12:33:17;;;;;;;12.07;5.72;;;;;;;6.10;58.78;99869.81;5156431;27;20070;-80
2020/12/27 12:36:23;;;;;;;15.57;6.18;;;;;;;6.20;59.78;99870.78;5130846;27;20061;-78
2020/12/27 12:39:27;;;;;;;9.13;5.57;;;;;;;6.14;59.00;99855.28;5129068;27;20066;-80
2020/12/27 12:42:36;;;;;;;11.52;5.35;;;;;;;6.16;57.79;99848.00;5141456;27;20041;-77
2020/12/27 12:45:42;;;;;;;9.82;5.78;;;;;;;6.12;57.36;99849.22;5156262;27;20049;-80
2020/12/27 12:48:46;;;;;;;9.48;5.18;;;;;;;6.18;58.21;99820.28;5147036;27;20115;-79
2020/12/27 12:51:51;;;;;;;11.52;5.95;;;;;;;6.05;58.09;99821.38;5141979;27;20050;-79
2020/12/27 12:54:57;;;;;;;10.20;5.40;;;;;;;6.10;58.08;99821.84;5114189;28;20050;-76
2020/12/27 12:58:01;;;;;;;12.55;6.07;;;;;;;6.04;58.74;99828.50;5114353;28;20051;-76
2020/12/27 13:01:08;;;;;;;10.68;5.70;;;;;;;6.11;58.19;99827.06;5143072;27;20049;-77
2020/12/27 13:04:12;;;;;;;7.78;5.20;;;;;;;6.02;57.16;99817.13;5144735;27;20046;-78
2020/12/27 13:07:20;;;;;;;11.68;6.28;;;;;;;5.90;57.74;99815.38;5155696;27;20384;-76
2020/12/27 13:10:24;;;;;;;13.68;5.95;;;;;;;5.97;57.52;99802.47;5143544;27;20096;-75
2020/12/27 13:13:29;;;;;;;11.82;5.65;;;;;;;5.90;58.47;99792.25;5117639;27;20041;-80
2020/12/27 13:16:35;;;;;;;9.88;5.95;;;;;;;5.88;58.85;99786.22;5124786;27;20047;-79
2020/12/27 13:19:45;;;;;;;11.88;5.82;;;;;;;5.72;59.44;99779.50;5108069;28;20397;-78
2020/12/27 13:22:50;;;;;;;8.32;5.65;;;;;;;5.65;59.31;99772.97;5122573;28;20046;-76
2020/12/27 13:25:56;;;;;;;9.52;5.68;;;;;;;5.69;59.51;99761.09;5130477;27;20042;-77
2020/12/27 13:29:00;;;;;;;13.15;6.30;;;;;;;5.79;59.59;99760.28;5124131;28;20043;-78
2020/12/27 13:32:05;;;;;;;8.93;5.45;;;;;;;5.72;59.84;99759.06;5122560;28;20062;-79
2020/12/27 13:35:10;;;;;;;9.75;5.80;;;;;;;5.67;59.66;99745.25;5128427;27;20038;-79
2020/12/27 13:38:15;;;;;;;8.35;5.82;;;;;;;5.65;59.57;99749.81;5134091;27;20055;-79
2020/12/27 13:41:20;;;;;;;12.65;5.38;;;;;;;5.60;59.89;99738.72;5122685;28;20074;-81
2020/12/27 13:44:25;;;;;;;9.60;5.55;;;;;;;5.64;60.37;99726.00;5124178;28;20051;-78
2020/12/27 13:47:29;;;;;;;12.73;5.90;;;;;;;5.70;60.59;99717.53;5117211;27;20404;-77
2020/12/27 13:50:34;;;;;;;8.32;5.97;;;;;;;5.66;60.89;99716.06;5129850;28;20050;-78
2020/12/27 13:53:38;;;;;;;11.25;7.05;;;;;;;5.66;60.70;99708.94;5101237;28;20057;-80
2020/12/27 13:56:43;;;;;;;12.65;6.57;;;;;;;5.60;60.79;99704.09;5114187;28;20055;-78
2020/12/27 13:59:48;;;;;;;10.93;6.40;;;;;;;5.67;61.49;99697.34;5134361;27;20396;-81
2020/12/27 14:02:54;;;;;;;13.70;6.95;;;;;;;5.63;60.88;99682.53;5154965;27;20050;-78
2020/12/27 14:05:58;;;;;;;9.93;5.68;;;;;;;5.55;60.39;99677.00;5113642;28;20501;-80
2020/12/27 14:09:03;;;;;;;9.63;5.20;;;;;;;5.72;62.71;99675.66;5134697;27;20389;-80
2020/12/27 14:12:08;;;;;;;7.80;5.40;;;;;;;5.81;62.39;99677.59;5144251;27;20071;-78
2020/12/27 14:15:12;;;;;;;15.90;6.30;;;;;;;5.72;60.48;99667.69;5153433;27;20054;-76
2020/12/27 14:18:17;;;;;;;13.40;6.18;;;;;;;5.73;61.08;99662.22;5137869;27;20050;-78
2020/12/27 14:21:22;;;;;;;11.60;6.30;;;;;;;5.70;60.92;99656.31;5143312;27;21034;-78
2020/12/27 14:24:27;;;;;;;8.57;5.20;;;;;;;5.57;60.85;99668.88;5122307;27;20054;-78
2020/12/27 14:27:31;;;;;;;8.80;5.97;;;;;;;5.47;60.92;99646.59;5136161;27;20047;-78
2020/12/27 14:30:36;;;;;;;9.43;5.60;;;;;;;5.40;61.24;99640.94;5105419;27;20047;-76
2020/12/27 14:33:41;;;;;;;8.63;5.22;;;;;;;5.28;61.23;99628.59;5104277;28;20042;-78
2020/12/27 14:36:46;;;;;;;11.50;6.60;;;;;;;5.19;61.85;99629.28;5126760;27;20392;-77
2020/12/27 14:39:50;;;;;;;13.00;6.50;;;;;;;5.20;62.79;99628.31;5137466;27;20528;-78
2020/12/27 14:42:54;;;;;;;10.50;6.28;;;;;;;5.09;63.57;99621.16;5151995;27;20049;-79
2020/12/27 14:46:00;;;;;;;9.35;6.32;;;;;;;5.06;63.28;99617.91;5145964;27;20045;-79